Paganini — V2CL8 — position and weather

sailwx.info

Track history (hours):
 
Tides and Currents Weather Stations Pressure Air Temp Water Temp Dewpoint Dewpoint Depression Visibility Wind Speed Wind Dir Waves Ship Positions

Paganini

Last reported at 2014-Oct-01 06:33 UTC. Time now 2014-Oct-02 08:30 UTC.
Position N 39°49' W 009°49'.

Length 90 m; draft 6 m.

Type: Ship. MMSI: 305040000.

Date/timePositionNaut miles runAvg speedWind from/ knotsBaromVisibWave heightAir tempDewpointWater temp
2014-Oct-01 06:33N 39°49' W 009°49'7 7.4
2014-Oct-01 05:33N 39°41' W 009°49'7 7.3
2014-Oct-01 04:33N 39°34' W 009°49'51 7.3
2014-Sep-30 21:30N 38°43' W 009°50'7 7.0
2014-Sep-30 20:33N 38°36' W 009°48'8 7.0
2014-Sep-30 19:28N 38°29' W 009°46'6 7.0
2014-Sep-30 18:33N 38°23' W 009°44'7 7.4
2014-Sep-30 17:33N 38°15' W 009°42'8 7.7
2014-Sep-30 16:33N 38°08' W 009°39'8 7.7
2014-Sep-30 15:33N 38°00' W 009°37'8 8.1
2014-Sep-30 14:32N 37°53' W 009°35'8 8.1
2014-Sep-30 13:33N 37°45' W 009°33'8 8.2
2014-Sep-30 12:33N 37°37' W 009°30'9 8.2
2014-Sep-30 11:25N 37°28' W 009°28'7 8.2
2014-Sep-30 10:33N 37°21' W 009°26'11 8.2
2014-Sep-30 09:14N 37°10' W 009°23'9 7.7
2014-Sep-30 08:07N 37°02' W 009°20'4 7.8
2014-Sep-30 07:33N 36°58' W 009°19'7 7.5
2014-Sep-30 06:33N 36°51' W 009°15'15 7.7
2014-Sep-30 04:33N 36°43' W 008°58'8 8.2
2014-Sep-30 03:33N 36°41' W 008°49'8 8.4
2014-Sep-30 02:33N 36°39' W 008°38'84 8.4
2014-Sep-29 16:33N 36°15' W 006°58'81 7.8
2014-Sep-29 06:07N 35°56' W 005°21'3 5.7
2014-Sep-29 05:33N 35°54' W 005°18'0 0.2
2014-Sep-29 04:33N 35°54' W 005°18'0 0.0
2014-Sep-29 03:33N 35°54' W 005°18'2 2.4
2014-Sep-29 02:33N 35°56' W 005°17'219 7.8
2014-Sep-27 22:29N 37°14' W 001°03'9 9.2
2014-Sep-27 21:33N 37°20' W 000°54'10 9.5
2014-Sep-27 20:33N 37°26' W 000°45'10 9.5
2014-Sep-27 19:33N 37°32' W 000°36'10 9.5
2014-Sep-27 18:31N 37°39' W 000°28'133 8.9
2014-Sep-27 03:33N 39°19' E 001°25'8 8.4
2014-Sep-27 02:34N 39°25' E 001°32'9 8.5
2014-Sep-27 01:33N 39°31' E 001°40'9 8.7
2014-Sep-27 00:33N 39°37' E 001°48'9 8.7
2014-Sep-26 23:33N 39°42' E 001°57'9 8.6
2014-Sep-26 22:33N 39°47' E 002°06'8 8.4
2014-Sep-26 21:33N 39°52' E 002°15'9 8.6
2014-Sep-26 20:34N 39°57' E 002°24'9 8.7
2014-Sep-26 19:34N 40°02' E 002°34'9 8.8
2014-Sep-26 18:33N 40°07' E 002°44'9 8.6
2014-Sep-26 17:34N 40°11' E 002°53'8 8.4
2014-Sep-26 16:33N 40°16' E 003°02'9 8.6
2014-Sep-26 15:33N 40°22' E 003°11'9 8.5
2014-Sep-26 14:33N 40°27' E 003°20'300 7.9
2014-Sep-25 00:31N 43°22' E 008°47'8 8.2
2014-Sep-24 23:34N 43°26' E 008°56'8 8.4
2014-Sep-24 22:33N 43°31' E 009°06'8 8.5
2014-Sep-24 21:33N 43°36' E 009°16'9 8.6
2014-Sep-24 20:34N 43°41' E 009°25'8 8.4
2014-Sep-24 19:34N 43°46' E 009°35'8 7.8
2014-Sep-24 18:34N 43°51' E 009°43'8 8.4
2014-Sep-24 17:34N 43°55' E 009°53'9 8.7
2014-Sep-24 16:34N 44°01' E 010°02'1 1.1
2014-Sep-24 15:33N 44°02' E 010°02'0 0.0
2014-Sep-24 14:33N 44°02' E 010°02'0 0.0
2014-Sep-24 13:33N 44°02' E 010°02'0 0.0
2014-Sep-24 12:33N 44°02' E 010°02'0 0.0
2014-Sep-24 11:33N 44°02' E 010°02'0 0.0
2014-Sep-24 10:27N 44°02' E 010°02'0 0.0
2014-Sep-24 09:33N 44°02' E 010°02'0 0.0
2014-Sep-24 08:33N 44°02' E 010°02'0 0.0
2014-Sep-24 07:33N 44°02' E 010°02'0 0.0
2014-Sep-24 06:27N 44°02' E 010°02'0 0.0
2014-Sep-24 05:33N 44°02' E 010°02'0 0.1
2014-Sep-24 04:33N 44°02' E 010°02'4 4.4
2014-Sep-24 03:33N 43°58' E 010°03'6 5.6
2014-Sep-24 02:33N 43°52' E 010°03'6 5.8
2014-Sep-24 01:33N 43°46' E 010°04'6 6.0
2014-Sep-24 00:33N 43°40' E 010°04'6 5.7
2014-Sep-23 23:33N 43°35' E 010°05'5 4.5
2014-Sep-23 22:33N 43°30' E 010°06'6 5.6
2014-Sep-23 21:33N 43°32' E 010°14'4 3.5
2014-Sep-23 20:31N 43°34' E 010°18'0 0.0
2014-Sep-23 19:31N 43°34' E 010°18'0 0.0
2014-Sep-23 18:31N 43°34' E 010°18'0 0.0
2014-Sep-23 17:31N 43°34' E 010°18'0 0.0
2014-Sep-23 16:31N 43°34' E 010°18'0 0.0
2014-Sep-23 15:31N 43°34' E 010°18'0 0.0
2014-Sep-23 14:31N 43°34' E 010°18'0 0.0
2014-Sep-23 13:31N 43°34' E 010°18'0 0.0
2014-Sep-23 12:31N 43°34' E 010°18'0 0.0
2014-Sep-23 11:31N 43°34' E 010°18'0 0.0
2014-Sep-23 10:31N 43°34' E 010°18'0 0.0
2014-Sep-23 09:31N 43°34' E 010°18'0 0.0
2014-Sep-23 08:31N 43°34' E 010°18'0 0.0
2014-Sep-23 07:31N 43°34' E 010°18'0 0.0
2014-Sep-23 06:31N 43°34' E 010°18'0 0.0
2014-Sep-23 05:31N 43°34' E 010°18'0 0.0
2014-Sep-23 04:31N 43°34' E 010°18'0 0.0
2014-Sep-23 03:28N 43°34' E 010°18'0 0.0
2014-Sep-23 02:31N 43°34' E 010°18'0 0.0
2014-Sep-23 01:31N 43°34' E 010°18'0 0.0
2014-Sep-23 00:31N 43°34' E 010°18'0 0.0
2014-Sep-22 23:31N 43°34' E 010°18'0 0.0
2014-Sep-22 22:31N 43°34' E 010°18'0 0.0
2014-Sep-22 21:31N 43°34' E 010°18'0 0.0
2014-Sep-22 20:31N 43°34' E 010°18'0 0.0
2014-Sep-22 19:31N 43°34' E 010°18'0 0.0
2014-Sep-22 18:31N 43°34' E 010°18'0 0.0
2014-Sep-22 17:31N 43°34' E 010°18'0 0.0
2014-Sep-22 16:31N 43°34' E 010°18'0 0.0
2014-Sep-22 15:31N 43°34' E 010°18'0 0.0
2014-Sep-22 14:31N 43°34' E 010°18'0 0.0
2014-Sep-22 13:31N 43°34' E 010°18'0 0.0
2014-Sep-22 12:31N 43°34' E 010°18'0 0.0
2014-Sep-22 11:31N 43°34' E 010°18'0 0.0
2014-Sep-22 10:28N 43°34' E 010°18'0 0.0
2014-Sep-22 09:33N 43°34' E 010°18'0 0.0
2014-Sep-22 08:31N 43°34' E 010°18'0 0.0
2014-Sep-22 07:31N 43°34' E 010°18'0 0.0
2014-Sep-22 06:31N 43°34' E 010°18'0 0.0
2014-Sep-22 05:28N 43°34' E 010°18'2 2.2
2014-Sep-22 04:33N 43°32' E 010°17'1 1.4
2014-Sep-22 03:31N 43°31' E 010°17'0 0.0
2014-Sep-22 02:31N 43°31' E 010°17'0 0.0
2014-Sep-22 01:31N 43°31' E 010°17'0 0.0
2014-Sep-22 00:31N 43°31' E 010°17'0 0.0
2014-Sep-21 23:31N 43°31' E 010°17'0 0.0
2014-Sep-21 22:31N 43°31' E 010°17'0 0.0
2014-Sep-21 21:31N 43°31' E 010°17'0 0.0
2014-Sep-21 20:31N 43°31' E 010°17'0 0.0
2014-Sep-21 19:31N 43°31' E 010°17'0 0.0
2014-Sep-21 18:31N 43°31' E 010°17'0 0.0
2014-Sep-21 17:31N 43°31' E 010°17'0 0.0
2014-Sep-21 16:31N 43°31' E 010°17'0 0.0
2014-Sep-21 15:28N 43°31' E 010°17'0 0.0
2014-Sep-21 14:31N 43°31' E 010°17'0 0.0
2014-Sep-21 13:31N 43°31' E 010°17'0 0.0
2014-Sep-21 12:31N 43°31' E 010°17'0 0.0
2014-Sep-21 11:31N 43°31' E 010°17'0 0.0
2014-Sep-21 10:31N 43°31' E 010°17'0 0.0
2014-Sep-21 09:31N 43°31' E 010°17'1 0.7
2014-Sep-21 08:33N 43°30' E 010°16'9 8.6
2014-Sep-21 07:33N 43°25' E 010°07'8 8.2
2014-Sep-21 06:33N 43°19' E 009°59'  
Track history (hours):
 
Tides and Currents Weather Stations Pressure Air Temp Water Temp Dewpoint Dewpoint Depression Visibility Wind Speed Wind Dir Waves Ship Positions

Paganini

Last reported at 2014-Oct-01 06:33 UTC. Time now 2014-Oct-02 08:30 UTC.
Position N 39°49' W 009°49'.

Length 90 m; draft 6 m.

Type: Ship. MMSI: 305040000.

Date/timePositionNaut miles runAvg speedWind from/ knotsBaromVisibWave heightAir tempDewpointWater temp
2014-Oct-01 06:33N 39°49' W 009°49'7 7.4
2014-Oct-01 05:33N 39°41' W 009°49'7 7.3
2014-Oct-01 04:33N 39°34' W 009°49'51 7.3
2014-Sep-30 21:30N 38°43' W 009°50'7 7.0
2014-Sep-30 20:33N 38°36' W 009°48'8 7.0
2014-Sep-30 19:28N 38°29' W 009°46'6 7.0
2014-Sep-30 18:33N 38°23' W 009°44'7 7.4
2014-Sep-30 17:33N 38°15' W 009°42'8 7.7
2014-Sep-30 16:33N 38°08' W 009°39'8 7.7
2014-Sep-30 15:33N 38°00' W 009°37'8 8.1
2014-Sep-30 14:32N 37°53' W 009°35'8 8.1
2014-Sep-30 13:33N 37°45' W 009°33'8 8.2
2014-Sep-30 12:33N 37°37' W 009°30'9 8.2
2014-Sep-30 11:25N 37°28' W 009°28'7 8.2
2014-Sep-30 10:33N 37°21' W 009°26'11 8.2
2014-Sep-30 09:14N 37°10' W 009°23'9 7.7
2014-Sep-30 08:07N 37°02' W 009°20'4 7.8
2014-Sep-30 07:33N 36°58' W 009°19'7 7.5
2014-Sep-30 06:33N 36°51' W 009°15'15 7.7
2014-Sep-30 04:33N 36°43' W 008°58'8 8.2
2014-Sep-30 03:33N 36°41' W 008°49'8 8.4
2014-Sep-30 02:33N 36°39' W 008°38'84 8.4
2014-Sep-29 16:33N 36°15' W 006°58'81 7.8
2014-Sep-29 06:07N 35°56' W 005°21'3 5.7
2014-Sep-29 05:33N 35°54' W 005°18'0 0.2
2014-Sep-29 04:33N 35°54' W 005°18'0 0.0
2014-Sep-29 03:33N 35°54' W 005°18'2 2.4
2014-Sep-29 02:33N 35°56' W 005°17'219 7.8
2014-Sep-27 22:29N 37°14' W 001°03'9 9.2
2014-Sep-27 21:33N 37°20' W 000°54'10 9.5
2014-Sep-27 20:33N 37°26' W 000°45'10 9.5
2014-Sep-27 19:33N 37°32' W 000°36'10 9.5
2014-Sep-27 18:31N 37°39' W 000°28'133 8.9
2014-Sep-27 03:33N 39°19' E 001°25'8 8.4
2014-Sep-27 02:34N 39°25' E 001°32'9 8.5
2014-Sep-27 01:33N 39°31' E 001°40'9 8.7
2014-Sep-27 00:33N 39°37' E 001°48'9 8.7
2014-Sep-26 23:33N 39°42' E 001°57'9 8.6
2014-Sep-26 22:33N 39°47' E 002°06'8 8.4
2014-Sep-26 21:33N 39°52' E 002°15'9 8.6
2014-Sep-26 20:34N 39°57' E 002°24'9 8.7
2014-Sep-26 19:34N 40°02' E 002°34'9 8.8
2014-Sep-26 18:33N 40°07' E 002°44'9 8.6
2014-Sep-26 17:34N 40°11' E 002°53'8 8.4
2014-Sep-26 16:33N 40°16' E 003°02'9 8.6
2014-Sep-26 15:33N 40°22' E 003°11'9 8.5
2014-Sep-26 14:33N 40°27' E 003°20'300 7.9
2014-Sep-25 00:31N 43°22' E 008°47'8 8.2
2014-Sep-24 23:34N 43°26' E 008°56'8 8.4
2014-Sep-24 22:33N 43°31' E 009°06'8 8.5
2014-Sep-24 21:33N 43°36' E 009°16'9 8.6
2014-Sep-24 20:34N 43°41' E 009°25'8 8.4
2014-Sep-24 19:34N 43°46' E 009°35'8 7.8
2014-Sep-24 18:34N 43°51' E 009°43'8 8.4
2014-Sep-24 17:34N 43°55' E 009°53'9 8.7
2014-Sep-24 16:34N 44°01' E 010°02'1 1.1
2014-Sep-24 15:33N 44°02' E 010°02'0 0.0
2014-Sep-24 14:33N 44°02' E 010°02'0 0.0
2014-Sep-24 13:33N 44°02' E 010°02'0 0.0
2014-Sep-24 12:33N 44°02' E 010°02'0 0.0
2014-Sep-24 11:33N 44°02' E 010°02'0 0.0
2014-Sep-24 10:27N 44°02' E 010°02'0 0.0
2014-Sep-24 09:33N 44°02' E 010°02'0 0.0
2014-Sep-24 08:33N 44°02' E 010°02'0 0.0
2014-Sep-24 07:33N 44°02' E 010°02'0 0.0
2014-Sep-24 06:27N 44°02' E 010°02'0 0.0
2014-Sep-24 05:33N 44°02' E 010°02'0 0.1
2014-Sep-24 04:33N 44°02' E 010°02'4 4.4
2014-Sep-24 03:33N 43°58' E 010°03'6 5.6
2014-Sep-24 02:33N 43°52' E 010°03'6 5.8
2014-Sep-24 01:33N 43°46' E 010°04'6 6.0
2014-Sep-24 00:33N 43°40' E 010°04'6 5.7
2014-Sep-23 23:33N 43°35' E 010°05'5 4.5
2014-Sep-23 22:33N 43°30' E 010°06'6 5.6
2014-Sep-23 21:33N 43°32' E 010°14'4 3.5
2014-Sep-23 20:31N 43°34' E 010°18'0 0.0
2014-Sep-23 19:31N 43°34' E 010°18'0 0.0
2014-Sep-23 18:31N 43°34' E 010°18'0 0.0
2014-Sep-23 17:31N 43°34' E 010°18'0 0.0
2014-Sep-23 16:31N 43°34' E 010°18'0 0.0
2014-Sep-23 15:31N 43°34' E 010°18'0 0.0
2014-Sep-23 14:31N 43°34' E 010°18'0 0.0
2014-Sep-23 13:31N 43°34' E 010°18'0 0.0
2014-Sep-23 12:31N 43°34' E 010°18'0 0.0
2014-Sep-23 11:31N 43°34' E 010°18'0 0.0
2014-Sep-23 10:31N 43°34' E 010°18'0 0.0
2014-Sep-23 09:31N 43°34' E 010°18'0 0.0
2014-Sep-23 08:31N 43°34' E 010°18'0 0.0
2014-Sep-23 07:31N 43°34' E 010°18'0 0.0
2014-Sep-23 06:31N 43°34' E 010°18'0 0.0
2014-Sep-23 05:31N 43°34' E 010°18'0 0.0
2014-Sep-23 04:31N 43°34' E 010°18'0 0.0
2014-Sep-23 03:28N 43°34' E 010°18'0 0.0
2014-Sep-23 02:31N 43°34' E 010°18'0 0.0
2014-Sep-23 01:31N 43°34' E 010°18'0 0.0
2014-Sep-23 00:31N 43°34' E 010°18'0 0.0
2014-Sep-22 23:31N 43°34' E 010°18'0 0.0
2014-Sep-22 22:31N 43°34' E 010°18'0 0.0
2014-Sep-22 21:31N 43°34' E 010°18'0 0.0
2014-Sep-22 20:31N 43°34' E 010°18'0 0.0
2014-Sep-22 19:31N 43°34' E 010°18'0 0.0
2014-Sep-22 18:31N 43°34' E 010°18'0 0.0
2014-Sep-22 17:31N 43°34' E 010°18'0 0.0
2014-Sep-22 16:31N 43°34' E 010°18'0 0.0
2014-Sep-22 15:31N 43°34' E 010°18'0 0.0
2014-Sep-22 14:31N 43°34' E 010°18'0 0.0
2014-Sep-22 13:31N 43°34' E 010°18'0 0.0
2014-Sep-22 12:31N 43°34' E 010°18'0 0.0
2014-Sep-22 11:31N 43°34' E 010°18'0 0.0
2014-Sep-22 10:28N 43°34' E 010°18'0 0.0
2014-Sep-22 09:33N 43°34' E 010°18'0 0.0
2014-Sep-22 08:31N 43°34' E 010°18'0 0.0
2014-Sep-22 07:31N 43°34' E 010°18'0 0.0
2014-Sep-22 06:31N 43°34' E 010°18'0 0.0
2014-Sep-22 05:28N 43°34' E 010°18'2 2.2
2014-Sep-22 04:33N 43°32' E 010°17'1 1.4
2014-Sep-22 03:31N 43°31' E 010°17'0 0.0
2014-Sep-22 02:31N 43°31' E 010°17'0 0.0
2014-Sep-22 01:31N 43°31' E 010°17'0 0.0
2014-Sep-22 00:31N 43°31' E 010°17'0 0.0
2014-Sep-21 23:31N 43°31' E 010°17'0 0.0
2014-Sep-21 22:31N 43°31' E 010°17'0 0.0
2014-Sep-21 21:31N 43°31' E 010°17'0 0.0
2014-Sep-21 20:31N 43°31' E 010°17'0 0.0
2014-Sep-21 19:31N 43°31' E 010°17'0 0.0
2014-Sep-21 18:31N 43°31' E 010°17'0 0.0
2014-Sep-21 17:31N 43°31' E 010°17'0 0.0
2014-Sep-21 16:31N 43°31' E 010°17'0 0.0
2014-Sep-21 15:28N 43°31' E 010°17'0 0.0
2014-Sep-21 14:31N 43°31' E 010°17'0 0.0
2014-Sep-21 13:31N 43°31' E 010°17'0 0.0
2014-Sep-21 12:31N 43°31' E 010°17'0 0.0
2014-Sep-21 11:31N 43°31' E 010°17'0 0.0
2014-Sep-21 10:31N 43°31' E 010°17'0 0.0
2014-Sep-21 09:31N 43°31' E 010°17'1 0.7
2014-Sep-21 08:33N 43°30' E 010°16'9 8.6
2014-Sep-21 07:33N 43°25' E 010°07'8 8.2
2014-Sep-21 06:33N 43°19' E 009°59'  

Dump ship's entire track history